createdAt,value
2023-02-22T00:00:50.176Z,88.50
2023-02-22T00:02:10.650Z,88.40
2023-02-22T00:03:03.041Z,88.67
2023-02-22T00:03:54.847Z,88.47
2023-02-22T00:04:46.294Z,88.63
2023-02-22T00:05:39.308Z,88.56
2023-02-22T00:06:31.130Z,88.42
2023-02-22T00:07:23.695Z,88.62
2023-02-22T00:08:17.057Z,88.81
2023-02-22T00:09:09.626Z,89.07
2023-02-22T00:10:01.316Z,89.07
2023-02-22T00:10:54.292Z,88.95
2023-02-22T00:11:48.801Z,88.81
2023-02-22T00:12:42.869Z,89.01
2023-02-22T00:13:35.786Z,88.84
2023-02-22T00:14:27.453Z,88.84
2023-02-22T00:15:22.610Z,88.75
2023-02-22T00:16:21.471Z,88.71
2023-02-22T00:17:13.616Z,88.43
2023-02-22T00:18:05.323Z,88.69
2023-02-22T00:18:56.994Z,88.51
2023-02-22T00:19:49.457Z,88.56
2023-02-22T00:20:41.014Z,88.82
2023-02-22T00:21:32.731Z,88.42
2023-02-22T00:22:24.571Z,88.58
2023-02-22T00:23:20.182Z,88.76
2023-02-22T00:24:23.100Z,88.57
2023-02-22T00:25:19.824Z,87.84
2023-02-22T00:26:11.313Z,88.56
2023-02-22T00:27:03.411Z,88.40
2023-02-22T00:27:56.341Z,88.57
2023-02-22T00:28:50.843Z,88.77
2023-02-22T00:29:47.148Z,88.65
2023-02-22T00:30:39.070Z,89.07
2023-02-22T00:31:30.530Z,89.01
2023-02-22T00:32:22.408Z,89.11
2023-02-22T00:33:15.869Z,88.90
2023-02-22T00:34:07.319Z,89.10
2023-02-22T00:34:59.024Z,89.00
2023-02-22T00:35:50.807Z,88.96
2023-02-22T00:36:47.596Z,88.97
2023-02-22T00:37:41.806Z,88.65
2023-02-22T00:38:33.536Z,88.77
2023-02-22T00:39:26.936Z,88.84
2023-02-22T00:40:21.972Z,88.77
2023-02-22T00:41:13.401Z,88.66
2023-02-22T00:42:04.942Z,88.78
2023-02-22T00:43:01.710Z,88.91
2023-02-22T00:43:53.344Z,88.89
2023-02-22T00:44:44.995Z,88.85
2023-02-22T00:45:38.185Z,88.60
2023-02-22T00:46:29.661Z,88.64
2023-02-22T00:47:21.184Z,88.44
2023-02-22T00:48:13.108Z,88.49
2023-02-22T00:49:05.415Z,88.33
2023-02-22T00:49:57.132Z,88.68
2023-02-22T00:50:48.660Z,88.50
2023-02-22T00:51:40.184Z,88.64
2023-02-22T00:52:31.672Z,88.48
2023-02-22T00:53:25.264Z,88.49
2023-02-22T00:54:20.160Z,88.62
2023-02-22T00:55:18.088Z,88.29
2023-02-22T00:56:09.938Z,88.25
2023-02-22T00:57:02.807Z,88.37
2023-02-22T00:57:59.269Z,88.44
2023-02-22T00:58:50.717Z,88.31
2023-02-22T00:59:42.325Z,88.16
2023-02-22T01:00:39.255Z,87.97
2023-02-22T01:01:32.249Z,88.07
2023-02-22T01:02:24.550Z,88.20
2023-02-22T01:03:19.788Z,88.08
2023-02-22T01:04:11.380Z,88.01
2023-02-22T01:05:03.778Z,87.90
2023-02-22T01:05:55.302Z,88.12
2023-02-22T01:06:47.012Z,88.03
2023-02-22T01:07:39.932Z,88.35
2023-02-22T01:08:32.488Z,88.00
2023-02-22T01:09:23.930Z,88.10
2023-02-22T01:10:17.924Z,88.29
2023-02-22T01:11:10.424Z,88.07
2023-02-22T01:12:02.527Z,87.89
2023-02-22T01:12:54.423Z,87.93
2023-02-22T01:13:46.212Z,87.77
2023-02-22T01:14:38.087Z,88.00
2023-02-22T01:15:30.936Z,87.77
2023-02-22T01:16:22.542Z,87.78
2023-02-22T01:17:14.290Z,87.79
2023-02-22T01:18:07.099Z,87.92
2023-02-22T01:19:00.129Z,87.76
2023-02-22T01:19:54.060Z,87.92
2023-02-22T01:20:48.057Z,88.01
2023-02-22T01:21:41.398Z,87.99
2023-02-22T01:22:33.301Z,87.93
2023-02-22T01:23:24.718Z,88.22
2023-02-22T01:24:18.277Z,88.12
2023-02-22T01:25:12.109Z,88.32
2023-02-22T01:26:05.945Z,88.35
2023-02-22T01:26:57.518Z,88.37
2023-02-22T01:27:50.513Z,88.53
2023-02-22T01:28:42.021Z,88.63
2023-02-22T01:29:34.047Z,88.29
2023-02-22T01:30:29.288Z,88.38
2023-02-22T01:31:24.245Z,88.34
2023-02-22T01:32:16.134Z,88.32
2023-02-22T01:33:09.004Z,88.62
2023-02-22T01:34:00.516Z,88.75
2023-02-22T01:34:55.064Z,88.82
2023-02-22T01:35:46.817Z,88.78
2023-02-22T01:36:40.156Z,89.57
2023-02-22T01:37:35.389Z,88.71
2023-02-22T01:38:26.786Z,88.88
2023-02-22T01:39:19.592Z,88.57
2023-02-22T01:40:20.568Z,88.75
2023-02-22T01:41:13.166Z,88.76
2023-02-22T01:42:04.742Z,88.56
2023-02-22T01:42:59.733Z,88.88
2023-02-22T01:43:51.206Z,88.83
2023-02-22T01:44:42.849Z,88.70
2023-02-22T01:45:53.035Z,88.92
2023-02-22T01:46:44.537Z,88.82
2023-02-22T01:47:35.970Z,89.02
2023-02-22T01:48:46.579Z,88.43
2023-02-22T01:49:48.069Z,88.37
2023-02-22T01:50:47.569Z,87.94
2023-02-22T01:51:44.403Z,87.60
2023-02-22T01:52:37.845Z,87.83
2023-02-22T01:53:37.025Z,87.28
2023-02-22T01:54:37.851Z,87.19
2023-02-22T01:55:29.444Z,86.68
2023-02-22T01:56:25.565Z,86.47
2023-02-22T01:57:24.986Z,86.51
2023-02-22T01:58:19.311Z,86.59
2023-02-22T01:59:13.458Z,86.25
2023-02-22T02:00:16.777Z,86.47
2023-02-22T02:01:10.284Z,86.80
2023-02-22T02:02:04.801Z,87.01
2023-02-22T02:03:02.990Z,86.88
2023-02-22T02:04:01.439Z,86.62
2023-02-22T02:04:56.463Z,86.72
2023-02-22T02:05:51.682Z,87.10
2023-02-22T02:06:44.651Z,86.98
2023-02-22T02:07:39.840Z,86.80
2023-02-22T02:08:39.956Z,87.16
2023-02-22T02:09:40.098Z,87.33
2023-02-22T02:10:32.026Z,87.13
2023-02-22T02:11:25.828Z,87.62
2023-02-22T02:12:23.179Z,87.00
2023-02-22T02:13:16.311Z,87.19
2023-02-22T02:14:11.015Z,86.85
2023-02-22T02:15:33.511Z,86.75
2023-02-22T02:16:39.223Z,87.04
2023-02-22T02:17:30.796Z,87.42
2023-02-22T02:18:24.771Z,87.46
2023-02-22T02:19:44.151Z,87.61
2023-02-22T02:20:43.437Z,87.71
2023-02-22T02:22:08.057Z,87.62
2023-02-22T02:23:12.268Z,87.57
2023-02-22T02:24:31.296Z,87.70
2023-02-22T02:25:31.478Z,87.37
2023-02-22T02:26:56.352Z,87.81
2023-02-22T02:28:18.627Z,87.69
2023-02-22T02:29:28.636Z,88.00
2023-02-22T02:30:40.577Z,87.68
2023-02-22T02:31:51.194Z,87.82
2023-02-22T02:33:07.973Z,88.07
2023-02-22T02:34:52.727Z,87.78
2023-02-22T02:36:02.749Z,87.62
2023-02-22T02:37:12.586Z,87.49
2023-02-22T02:38:18.086Z,87.58
2023-02-22T02:39:29.212Z,87.80
2023-02-22T02:40:39.289Z,87.75
2023-02-22T02:41:50.557Z,87.86
2023-02-22T02:43:10.341Z,87.49
2023-02-22T02:44:22.396Z,87.50
2023-02-22T02:45:23.381Z,87.61
2023-02-22T02:46:35.587Z,87.59
2023-02-22T02:47:32.753Z,87.66
2023-02-22T02:48:28.864Z,88.00
2023-02-22T02:49:46.449Z,88.00
2023-02-22T02:50:47.330Z,88.25
2023-02-22T02:51:47.210Z,88.37
2023-02-22T02:52:42.314Z,88.55
2023-02-22T02:53:42.922Z,88.59
2023-02-22T02:54:38.216Z,88.70
2023-02-22T02:55:32.637Z,88.70
2023-02-22T02:56:26.065Z,88.53
2023-02-22T02:57:17.807Z,88.55
2023-02-22T02:58:23.615Z,88.77
2023-02-22T02:59:27.108Z,88.53
2023-02-22T03:00:27.225Z,88.59
2023-02-22T03:02:08.461Z,88.74
2023-02-22T03:03:28.228Z,89.01
2023-02-22T03:04:54.070Z,88.87
2023-02-22T03:06:05.742Z,88.66
2023-02-22T03:07:00.280Z,88.75
2023-02-22T03:07:51.774Z,88.77
2023-02-22T03:09:20.301Z,88.81
2023-02-22T03:10:41.636Z,88.84
2023-02-22T03:12:01.426Z,88.47
2023-02-22T03:13:04.912Z,88.38
2023-02-22T03:14:21.901Z,88.16
2023-02-22T03:15:32.444Z,88.35
2023-02-22T03:16:40.430Z,88.52
2023-02-22T03:18:02.666Z,88.45
2023-02-22T03:19:19.240Z,88.42
2023-02-22T03:20:34.275Z,88.22
2023-02-22T03:21:33.541Z,88.36
2023-02-22T03:22:44.084Z,88.54
2023-02-22T03:24:01.295Z,88.50
2023-02-22T03:25:10.509Z,88.00
2023-02-22T03:26:13.776Z,88.08
2023-02-22T03:27:23.397Z,88.13
2023-02-22T03:28:21.486Z,88.15
2023-02-22T03:29:17.964Z,88.32
2023-02-22T03:30:28.064Z,88.04
2023-02-22T03:31:27.644Z,88.27
2023-02-22T03:32:28.053Z,88.29
2023-02-22T03:33:34.375Z,88.55
2023-02-22T03:34:40.692Z,88.55
2023-02-22T03:35:37.634Z,88.17
2023-02-22T03:36:39.250Z,88.32
2023-02-22T03:37:37.430Z,88.04
2023-02-22T03:38:34.087Z,88.33
2023-02-22T03:39:31.051Z,88.33
2023-02-22T03:40:37.166Z,87.73
2023-02-22T03:41:38.885Z,87.40
2023-02-22T03:42:37.537Z,87.32
2023-02-22T03:43:38.147Z,87.46
2023-02-22T03:44:40.269Z,87.01
2023-02-22T03:45:34.471Z,87.19
2023-02-22T03:46:31.888Z,87.57
2023-02-22T03:47:37.900Z,87.43
2023-02-22T03:48:44.365Z,87.61
2023-02-22T03:50:07.343Z,87.87
2023-02-22T03:51:04.869Z,87.15
2023-02-22T03:51:59.604Z,87.16
2023-02-22T03:52:53.311Z,87.13
2023-02-22T03:53:50.616Z,87.36
2023-02-22T03:54:44.559Z,87.34
2023-02-22T03:55:36.374Z,87.38
2023-02-22T03:56:36.368Z,87.22
2023-02-22T03:57:35.606Z,87.43
2023-02-22T03:58:35.024Z,87.62
2023-02-22T03:59:28.094Z,87.85
2023-02-22T04:00:23.766Z,87.99
2023-02-22T04:01:16.976Z,88.06
2023-02-22T04:02:09.572Z,87.90
2023-02-22T04:03:02.518Z,87.68
2023-02-22T04:03:54.484Z,87.93
2023-02-22T04:04:48.178Z,87.84
2023-02-22T04:05:40.120Z,87.83
2023-02-22T04:06:32.215Z,87.74
2023-02-22T04:07:25.203Z,87.92
2023-02-22T04:08:17.417Z,87.96
2023-02-22T04:09:08.942Z,88.21
2023-02-22T04:10:02.786Z,88.11
2023-02-22T04:10:55.471Z,88.11
2023-02-22T04:11:50.832Z,88.12
2023-02-22T04:12:42.746Z,88.11
2023-02-22T04:13:34.546Z,88.40
2023-02-22T04:14:29.530Z,87.82
2023-02-22T04:15:24.512Z,87.83
2023-02-22T04:16:21.229Z,87.66
2023-02-22T04:17:12.674Z,87.62
2023-02-22T04:18:05.663Z,87.73
2023-02-22T04:18:57.457Z,87.64
2023-02-22T04:19:49.268Z,87.15
2023-02-22T04:20:40.792Z,87.01
2023-02-22T04:21:35.386Z,86.76
2023-02-22T04:22:27.828Z,86.79
2023-02-22T04:23:19.747Z,87.08
2023-02-22T04:24:11.850Z,87.15
2023-02-22T04:25:06.053Z,87.20
2023-02-22T04:25:57.557Z,87.18
2023-02-22T04:26:49.895Z,87.00
2023-02-22T04:27:41.810Z,86.62
2023-02-22T04:28:33.579Z,86.76
2023-02-22T04:29:35.052Z,86.74
2023-02-22T04:30:28.182Z,86.79
2023-02-22T04:31:20.368Z,87.06
2023-02-22T04:32:12.007Z,87.46
2023-02-22T04:33:04.672Z,87.46
2023-02-22T04:33:56.928Z,87.46
2023-02-22T04:34:52.675Z,87.56
2023-02-22T04:35:44.198Z,87.56
2023-02-22T04:36:36.254Z,87.40
2023-02-22T04:37:28.350Z,87.53
2023-02-22T04:38:20.585Z,87.62
2023-02-22T04:39:13.064Z,87.39
2023-02-22T04:40:09.132Z,87.13
2023-02-22T04:41:01.021Z,87.08
2023-02-22T04:41:52.872Z,86.70
2023-02-22T04:42:44.559Z,86.79
2023-02-22T04:43:36.008Z,87.02
2023-02-22T04:44:35.808Z,86.95
2023-02-22T04:45:27.372Z,86.99
2023-02-22T04:46:19.810Z,86.65
2023-02-22T04:47:11.430Z,86.52
2023-02-22T04:48:02.952Z,86.80
2023-02-22T04:48:54.845Z,86.90
2023-02-22T04:49:49.447Z,86.74
2023-02-22T04:50:40.948Z,86.82
2023-02-22T04:51:32.949Z,86.81
2023-02-22T04:52:27.826Z,86.80
2023-02-22T04:53:19.332Z,86.68
2023-02-22T04:54:11.175Z,87.36
2023-02-22T04:55:08.721Z,87.50
2023-02-22T04:56:01.684Z,87.22
2023-02-22T04:56:54.000Z,87.56
2023-02-22T04:57:45.499Z,87.68
2023-02-22T04:58:37.099Z,87.34
2023-02-22T04:59:28.909Z,87.19
2023-02-22T05:00:24.536Z,87.04
2023-02-22T05:01:20.864Z,87.06
2023-02-22T05:02:12.643Z,87.17
2023-02-22T05:03:04.636Z,87.25
2023-02-22T05:03:56.107Z,87.45
2023-02-22T05:04:47.705Z,87.57
2023-02-22T05:05:39.382Z,87.68
2023-02-22T05:06:31.068Z,87.86
2023-02-22T05:07:22.542Z,87.87
2023-02-22T05:08:14.078Z,87.22
2023-02-22T05:09:06.336Z,87.38
2023-02-22T05:09:58.823Z,87.49
2023-02-22T05:10:50.344Z,87.79
2023-02-22T05:11:42.065Z,87.66
2023-02-22T05:12:33.633Z,87.70
2023-02-22T05:13:25.129Z,87.65
2023-02-22T05:14:16.725Z,87.64
2023-02-22T05:15:09.891Z,87.49
2023-02-22T05:16:02.381Z,87.63
2023-02-22T05:16:56.508Z,87.64
2023-02-22T05:17:48.113Z,87.51
2023-02-22T05:18:39.588Z,87.45
2023-02-22T05:19:31.105Z,87.59
2023-02-22T05:20:30.844Z,87.51
2023-02-22T05:21:22.567Z,87.27
2023-02-22T05:22:14.088Z,87.47
2023-02-22T05:23:07.341Z,87.37
2023-02-22T05:23:59.062Z,87.44
2023-02-22T05:24:52.495Z,87.14
2023-02-22T05:25:44.659Z,87.45
2023-02-22T05:26:36.102Z,86.68
2023-02-22T05:27:27.606Z,86.96
2023-02-22T05:28:19.170Z,87.32
2023-02-22T05:29:12.100Z,87.25
2023-02-22T05:30:05.181Z,87.17
2023-02-22T05:30:57.809Z,87.01
2023-02-22T05:31:49.400Z,87.17
2023-02-22T05:32:41.167Z,86.99
2023-02-22T05:33:32.920Z,86.90
2023-02-22T05:34:24.391Z,87.01
2023-02-22T05:35:16.217Z,87.21
2023-02-22T05:36:08.327Z,87.37
2023-02-22T05:36:59.790Z,87.22
2023-02-22T05:37:52.530Z,87.62
2023-02-22T05:38:44.724Z,87.41
2023-02-22T05:39:36.544Z,87.92
2023-02-22T05:40:30.233Z,87.87
2023-02-22T05:41:21.996Z,87.92
2023-02-22T05:42:13.426Z,87.74
2023-02-22T05:43:05.205Z,87.74
2023-02-22T05:43:56.845Z,87.47
2023-02-22T05:44:48.351Z,86.92
2023-02-22T05:45:39.827Z,87.10
2023-02-22T05:46:31.443Z,87.17
2023-02-22T05:47:22.932Z,87.14
2023-02-22T05:48:14.420Z,87.29
2023-02-22T05:49:06.137Z,87.18
2023-02-22T05:49:57.606Z,86.99
2023-02-22T05:50:49.928Z,87.05
2023-02-22T05:51:42.255Z,87.10
2023-02-22T05:52:33.840Z,87.04
2023-02-22T05:53:25.285Z,87.10
2023-02-22T05:54:17.113Z,87.44
2023-02-22T05:55:11.179Z,87.11
2023-02-22T05:56:03.187Z,86.73
2023-02-22T05:56:55.009Z,86.58
2023-02-22T05:57:46.787Z,86.37
2023-02-22T05:58:38.325Z,86.39
2023-02-22T05:59:30.195Z,86.94
2023-02-22T06:00:27.726Z,87.03
2023-02-22T06:01:19.563Z,86.81
2023-02-22T06:02:11.489Z,86.77
2023-02-22T06:03:05.844Z,87.01
2023-02-22T06:03:57.392Z,86.86
2023-02-22T06:04:48.856Z,86.89
2023-02-22T06:05:41.068Z,86.90
2023-02-22T06:06:32.656Z,86.85
2023-02-22T06:07:24.230Z,86.68
2023-02-22T06:08:15.959Z,86.67
2023-02-22T06:09:07.495Z,86.56
2023-02-22T06:09:58.968Z,86.45
2023-02-22T06:10:50.600Z,86.89
2023-02-22T06:11:42.108Z,86.68
2023-02-22T06:12:33.543Z,86.69
2023-02-22T06:13:25.029Z,86.76
2023-02-22T06:14:16.984Z,86.68
2023-02-22T06:15:08.750Z,86.72
2023-02-22T06:16:00.443Z,86.93
2023-02-22T06:16:56.646Z,86.93
2023-02-22T06:17:48.693Z,87.03
2023-02-22T06:18:40.165Z,87.21
2023-02-22T06:19:31.583Z,87.29
2023-02-22T06:20:25.555Z,87.29
2023-02-22T06:21:17.482Z,87.29
2023-02-22T06:22:18.262Z,87.45
2023-02-22T06:23:09.749Z,87.24
2023-02-22T06:24:04.434Z,87.21
2023-02-22T06:24:56.095Z,87.16
2023-02-22T06:25:48.444Z,87.15
2023-02-22T06:26:40.176Z,87.26
2023-02-22T06:27:33.106Z,87.20
2023-02-22T06:28:24.594Z,86.92
2023-02-22T06:29:16.158Z,87.03
2023-02-22T06:30:10.805Z,87.04
2023-02-22T06:31:03.379Z,86.92
2023-02-22T06:31:56.950Z,86.59
2023-02-22T06:32:48.829Z,86.77
2023-02-22T06:33:40.458Z,86.59
2023-02-22T06:34:32.687Z,86.32
2023-02-22T06:35:24.345Z,86.35
2023-02-22T06:36:15.963Z,86.24
2023-02-22T06:37:08.274Z,86.35
2023-02-22T06:37:59.960Z,86.13
2023-02-22T06:38:51.701Z,85.88
2023-02-22T06:39:43.396Z,86.17
2023-02-22T06:40:34.937Z,86.20
2023-02-22T06:41:26.550Z,86.12
2023-02-22T06:42:18.199Z,85.91
2023-02-22T06:43:11.006Z,86.00
2023-02-22T06:44:02.493Z,86.00
2023-02-22T06:44:53.989Z,85.88
2023-02-22T06:45:45.512Z,86.16
2023-02-22T06:46:38.745Z,86.17
2023-02-22T06:47:30.494Z,86.03
2023-02-22T06:48:22.090Z,85.94
2023-02-22T06:49:14.110Z,85.96
2023-02-22T06:50:05.896Z,85.73
2023-02-22T06:50:57.419Z,85.53
2023-02-22T06:51:49.073Z,85.42
2023-02-22T06:52:43.623Z,85.46
2023-02-22T06:53:35.779Z,85.51
2023-02-22T06:54:27.355Z,85.52
2023-02-22T06:55:27.585Z,85.81
2023-02-22T06:56:19.128Z,85.74
2023-02-22T06:57:10.701Z,85.80
2023-02-22T06:58:04.843Z,85.81
2023-02-22T06:58:56.428Z,85.70
2023-02-22T06:59:47.959Z,85.75
2023-02-22T07:00:39.700Z,85.64
2023-02-22T07:01:31.417Z,85.79
2023-02-22T07:02:22.962Z,85.98
2023-02-22T07:03:14.933Z,85.91
2023-02-22T07:04:06.485Z,86.17
2023-02-22T07:04:57.931Z,85.85
2023-02-22T07:05:49.428Z,86.07
2023-02-22T07:06:48.937Z,86.21
2023-02-22T07:07:40.463Z,86.47
2023-02-22T07:08:32.132Z,86.45
2023-02-22T07:09:23.869Z,86.77
2023-02-22T07:10:28.013Z,86.72
2023-02-22T07:11:19.531Z,86.92
2023-02-22T07:12:12.349Z,86.89
2023-02-22T07:13:06.838Z,87.03
2023-02-22T07:13:58.616Z,86.89
2023-02-22T07:14:50.098Z,86.79
2023-02-22T07:15:41.897Z,86.79
2023-02-22T07:16:33.834Z,86.72
2023-02-22T07:17:25.314Z,86.95
2023-02-22T07:18:17.005Z,86.73
2023-02-22T07:19:08.666Z,86.57
2023-02-22T07:20:00.122Z,86.76
2023-02-22T07:20:52.236Z,86.58
2023-02-22T07:21:43.638Z,86.73
2023-02-22T07:22:35.045Z,86.72
2023-02-22T07:23:27.205Z,86.61
2023-02-22T07:24:18.644Z,86.89
2023-02-22T07:25:11.354Z,86.88
2023-02-22T07:26:05.450Z,86.83
2023-02-22T07:26:56.889Z,87.01
2023-02-22T07:27:49.325Z,86.53
2023-02-22T07:28:40.835Z,86.91
2023-02-22T07:29:34.455Z,86.40
2023-02-22T07:30:32.644Z,86.06
2023-02-22T07:31:24.436Z,85.64
2023-02-22T07:32:16.069Z,85.49
2023-02-22T07:33:11.136Z,85.46
2023-02-22T07:34:02.603Z,85.78
2023-02-22T07:34:54.003Z,86.09
2023-02-22T07:35:48.531Z,86.10
2023-02-22T07:36:40.161Z,86.05
2023-02-22T07:37:31.593Z,86.36
2023-02-22T07:38:23.055Z,86.23
2023-02-22T07:39:14.798Z,86.03
2023-02-22T07:40:07.832Z,86.21
2023-02-22T07:40:59.575Z,85.94
2023-02-22T07:41:51.004Z,86.19
2023-02-22T07:42:56.626Z,85.91
2023-02-22T07:43:48.316Z,86.10
2023-02-22T07:44:39.807Z,85.90
2023-02-22T07:45:33.942Z,86.20
2023-02-22T07:46:25.483Z,86.40
2023-02-22T07:47:16.948Z,86.18
2023-02-22T07:48:08.777Z,86.17
2023-02-22T07:49:00.282Z,86.21
2023-02-22T07:49:52.059Z,86.34
2023-02-22T07:50:43.551Z,86.36
2023-02-22T07:51:35.090Z,86.39
2023-02-22T07:52:26.536Z,86.39
2023-02-22T07:53:24.589Z,86.17
2023-02-22T07:54:16.038Z,86.45
2023-02-22T07:55:07.745Z,86.22
2023-02-22T07:56:01.893Z,86.44
2023-02-22T07:56:53.806Z,86.52
2023-02-22T07:57:47.092Z,86.25
2023-02-22T07:58:39.086Z,86.31
2023-02-22T07:59:30.731Z,86.47
2023-02-22T08:00:26.694Z,86.34
2023-02-22T08:01:18.608Z,86.16
2023-02-22T08:02:17.154Z,86.47
2023-02-22T08:03:12.386Z,86.44
2023-02-22T08:04:04.309Z,86.69
2023-02-22T08:04:55.723Z,86.37
2023-02-22T08:05:50.221Z,86.66
2023-02-22T08:06:41.686Z,86.66
2023-02-22T08:07:33.168Z,86.72
2023-02-22T08:08:24.596Z,86.69
2023-02-22T08:09:15.994Z,86.71
2023-02-22T08:10:09.410Z,86.94
2023-02-22T08:11:01.196Z,86.83
2023-02-22T08:11:52.861Z,86.76
2023-02-22T08:12:45.361Z,86.76
2023-02-22T08:13:38.941Z,86.75
2023-02-22T08:14:30.420Z,86.89
2023-02-22T08:15:34.760Z,87.02
2023-02-22T08:16:26.171Z,86.90
2023-02-22T08:17:17.729Z,87.02
2023-02-22T08:18:12.349Z,86.95
2023-02-22T08:19:03.909Z,87.06
2023-02-22T08:19:55.366Z,86.99
2023-02-22T08:20:49.337Z,87.22
2023-02-22T08:21:40.728Z,87.46
2023-02-22T08:22:33.515Z,87.27
2023-02-22T08:23:26.934Z,87.06
2023-02-22T08:24:18.399Z,87.04
2023-02-22T08:25:10.135Z,87.19
2023-02-22T08:26:08.868Z,87.17
2023-02-22T08:27:00.532Z,87.17
2023-02-22T08:27:53.132Z,87.38
2023-02-22T08:28:44.602Z,87.39
2023-02-22T08:29:36.098Z,87.46
2023-02-22T08:30:30.657Z,87.47
2023-02-22T08:31:22.380Z,87.86
2023-02-22T08:32:14.195Z,87.71
2023-02-22T08:33:06.409Z,87.63
2023-02-22T08:33:58.450Z,87.73
2023-02-22T08:34:49.974Z,87.87
2023-02-22T08:35:41.702Z,87.58
2023-02-22T08:36:34.533Z,87.58
2023-02-22T08:37:26.101Z,87.55
2023-02-22T08:38:25.590Z,87.81
2023-02-22T08:39:17.266Z,87.84
2023-02-22T08:40:09.428Z,87.59
2023-02-22T08:41:01.239Z,87.86
2023-02-22T08:41:53.009Z,87.71
2023-02-22T08:42:44.568Z,87.36
2023-02-22T08:43:36.081Z,87.41
2023-02-22T08:44:27.753Z,87.65
2023-02-22T08:45:21.011Z,87.45
2023-02-22T08:46:13.581Z,87.58
2023-02-22T08:47:06.424Z,87.56
2023-02-22T08:47:59.361Z,87.33
2023-02-22T08:48:51.948Z,87.25
2023-02-22T08:49:43.512Z,87.54
2023-02-22T08:50:35.827Z,87.35
2023-02-22T08:51:27.876Z,87.18
2023-02-22T08:52:21.789Z,86.99
2023-02-22T08:53:14.504Z,87.17
2023-02-22T08:54:07.534Z,86.96
2023-02-22T08:54:59.078Z,86.89
2023-02-22T08:55:50.653Z,87.11
2023-02-22T08:56:42.123Z,87.08
2023-02-22T08:57:33.548Z,86.81
2023-02-22T08:58:25.259Z,86.96
2023-02-22T08:59:17.534Z,86.77
2023-02-22T09:00:09.640Z,86.99
2023-02-22T09:01:03.734Z,86.94
2023-02-22T09:01:55.335Z,86.86
2023-02-22T09:02:46.832Z,86.59
2023-02-22T09:03:38.268Z,86.61
2023-02-22T09:04:29.945Z,86.55
2023-02-22T09:05:22.031Z,86.48
2023-02-22T09:06:13.524Z,86.32
2023-02-22T09:07:09.710Z,86.54
2023-02-22T09:08:02.042Z,86.29
2023-02-22T09:08:53.626Z,86.18
2023-02-22T09:09:45.548Z,86.28
2023-02-22T09:10:37.588Z,85.98
2023-02-22T09:11:29.049Z,86.06
2023-02-22T09:12:20.448Z,85.62
2023-02-22T09:13:12.548Z,85.87
2023-02-22T09:14:04.239Z,85.32
2023-02-22T09:14:55.683Z,85.44
2023-02-22T09:15:47.394Z,85.39
2023-02-22T09:16:38.853Z,85.26
2023-02-22T09:17:30.326Z,85.38
2023-02-22T09:18:21.853Z,85.34
2023-02-22T09:19:13.356Z,85.05
2023-02-22T09:20:07.070Z,85.12
2023-02-22T09:20:59.443Z,84.93
2023-02-22T09:21:55.412Z,84.73
2023-02-22T09:22:49.157Z,84.77
2023-02-22T09:23:41.583Z,84.82
2023-02-22T09:24:33.157Z,84.49
2023-02-22T09:25:25.113Z,84.42
2023-02-22T09:26:16.594Z,84.39
2023-02-22T09:27:10.842Z,84.33
2023-02-22T09:28:02.468Z,84.35
2023-02-22T09:28:53.930Z,84.20
2023-02-22T09:29:48.628Z,83.90
2023-02-22T09:30:40.706Z,83.92
2023-02-22T09:31:35.648Z,83.99
2023-02-22T09:32:30.813Z,83.83
2023-02-22T09:33:22.764Z,83.75
2023-02-22T09:34:14.737Z,83.48
2023-02-22T09:35:08.626Z,83.62
2023-02-22T09:36:01.859Z,83.34
2023-02-22T09:36:53.269Z,83.25
2023-02-22T09:37:45.115Z,82.92
2023-02-22T09:38:36.814Z,82.90
2023-02-22T09:39:28.318Z,82.30
2023-02-22T09:40:24.964Z,82.22
2023-02-22T09:41:34.626Z,81.85
2023-02-22T09:42:27.742Z,81.47
2023-02-22T09:43:40.811Z,81.31
2023-02-22T09:44:48.504Z,81.04
2023-02-22T09:46:19.973Z,81.11
2023-02-22T09:47:19.872Z,81.33
2023-02-22T09:48:22.180Z,81.18
2023-02-22T09:49:37.599Z,80.96
2023-02-22T09:50:36.199Z,80.54
2023-02-22T09:51:37.396Z,80.37
2023-02-22T09:52:39.665Z,79.71
2023-02-22T09:53:49.626Z,79.42
2023-02-22T09:54:53.571Z,78.84
2023-02-22T09:55:51.517Z,78.19
2023-02-22T09:56:48.330Z,77.79
2023-02-22T09:57:44.018Z,77.60
2023-02-22T09:58:42.829Z,77.44
2023-02-22T09:59:48.505Z,76.77
2023-02-22T10:00:45.529Z,76.42
2023-02-22T10:01:47.412Z,76.97
2023-02-22T10:03:07.039Z,75.94
2023-02-22T10:04:20.312Z,75.92
2023-02-22T10:05:27.713Z,75.64
2023-02-22T10:06:23.872Z,76.05
2023-02-22T10:07:26.233Z,75.38
2023-02-22T10:08:19.672Z,75.82
2023-02-22T10:09:11.541Z,75.23
2023-02-22T10:10:06.816Z,74.41
2023-02-22T10:11:35.001Z,74.26
2023-02-22T10:12:35.874Z,74.18
2023-02-22T10:13:42.470Z,74.24
2023-02-22T10:15:08.000Z,74.69
2023-02-22T10:15:59.394Z,73.73
2023-02-22T10:17:08.302Z,73.68
2023-02-22T10:18:36.446Z,74.31
2023-02-22T10:19:46.906Z,74.21
2023-02-22T10:20:38.399Z,73.77
2023-02-22T10:21:50.535Z,73.77
2023-02-22T10:23:02.781Z,72.35
2023-02-22T10:24:13.668Z,72.49
2023-02-22T10:25:09.665Z,72.69
2023-02-22T10:26:22.530Z,72.97
2023-02-22T10:27:28.134Z,72.35
2023-02-22T10:28:27.314Z,71.82
2023-02-22T10:29:41.769Z,71.60
2023-02-22T10:30:42.099Z,70.98
2023-02-22T10:31:41.060Z,70.88
2023-02-22T10:32:45.767Z,71.47
2023-02-22T10:33:46.896Z,70.70
2023-02-22T10:34:46.269Z,70.21
2023-02-22T10:35:41.411Z,71.23
2023-02-22T10:36:34.316Z,71.12
2023-02-22T10:37:32.221Z,70.64
2023-02-22T10:38:31.900Z,70.46
2023-02-22T10:39:31.501Z,70.05
2023-02-22T10:40:34.423Z,70.45
2023-02-22T10:41:36.325Z,70.81
2023-02-22T10:42:29.705Z,69.28
2023-02-22T10:43:23.314Z,69.28
2023-02-22T10:44:15.322Z,70.04
2023-02-22T10:45:22.593Z,68.44
2023-02-22T10:46:20.987Z,68.92
2023-02-22T10:47:17.960Z,68.41
2023-02-22T10:48:18.964Z,68.83
2023-02-22T10:49:18.812Z,67.80
2023-02-22T10:50:14.933Z,67.63
2023-02-22T10:51:09.644Z,68.54
2023-02-22T10:52:03.880Z,65.72
2023-02-22T10:52:55.584Z,67.59
2023-02-22T10:54:19.916Z,67.19
2023-02-22T10:55:16.126Z,66.54
2023-02-22T10:56:24.190Z,66.58
2023-02-22T10:57:22.839Z,66.39
2023-02-22T10:58:14.599Z,65.67
2023-02-22T10:59:07.868Z,66.25
2023-02-22T11:00:29.880Z,66.21
2023-02-22T11:01:41.110Z,65.36
2023-02-22T11:02:35.670Z,66.14
2023-02-22T11:03:27.444Z,66.03
2023-02-22T11:04:24.319Z,65.12
2023-02-22T11:05:28.894Z,65.72
2023-02-22T11:06:21.587Z,67.15
2023-02-22T11:07:24.425Z,66.36
2023-02-22T11:08:18.795Z,66.46
2023-02-22T11:09:24.787Z,64.79
2023-02-22T11:10:31.694Z,63.95
2023-02-22T11:11:25.806Z,63.94
2023-02-22T11:12:48.740Z,64.12
2023-02-22T11:13:40.233Z,63.28
2023-02-22T11:14:31.784Z,63.48
2023-02-22T11:15:23.628Z,62.54
2023-02-22T11:16:31.334Z,61.34
2023-02-22T11:17:32.560Z,61.80
2023-02-22T11:18:29.677Z,61.58
2023-02-22T11:19:27.471Z,61.71
2023-02-22T11:20:25.430Z,61.87
2023-02-22T11:21:24.541Z,61.52
2023-02-22T11:22:31.890Z,61.63
2023-02-22T11:23:23.728Z,61.16
2023-02-22T11:25:08.865Z,60.83
2023-02-22T11:26:11.444Z,60.63
2023-02-22T11:27:08.202Z,60.44
2023-02-22T11:28:32.750Z,60.76
2023-02-22T11:29:38.169Z,60.91
2023-02-22T11:30:35.754Z,60.28
2023-02-22T11:31:30.002Z,60.25
2023-02-22T11:32:22.469Z,60.38
2023-02-22T11:33:24.135Z,60.88
2023-02-22T11:34:31.954Z,61.48
2023-02-22T11:35:29.338Z,59.69
2023-02-22T11:36:30.490Z,59.83
2023-02-22T11:37:25.853Z,59.12
2023-02-22T11:38:28.472Z,59.63
2023-02-22T11:39:25.191Z,59.40
2023-02-22T11:40:22.247Z,58.83
2023-02-22T11:41:18.333Z,60.59
2023-02-22T11:42:26.234Z,59.83
2023-02-22T11:43:20.180Z,59.45
2023-02-22T11:44:22.211Z,60.63
2023-02-22T11:45:20.770Z,60.35
2023-02-22T11:46:34.937Z,58.54
2023-02-22T11:47:26.556Z,58.39
2023-02-22T11:48:23.366Z,58.44
2023-02-22T11:49:17.285Z,58.31
2023-02-22T11:50:27.984Z,58.14
2023-02-22T11:52:09.537Z,58.00
2023-02-22T11:53:29.374Z,58.19
2023-02-22T11:54:53.297Z,58.65
2023-02-22T11:56:35.617Z,58.06
2023-02-22T11:57:46.838Z,58.26
2023-02-22T11:58:56.109Z,57.24
2023-02-22T12:00:16.025Z,56.54
2023-02-22T12:01:19.114Z,58.16
2023-02-22T12:02:28.189Z,58.14
2023-02-22T12:03:28.963Z,58.05
2023-02-22T12:04:49.701Z,58.84
2023-02-22T12:06:08.135Z,57.99
2023-02-22T12:07:21.953Z,57.49
2023-02-22T12:08:22.441Z,58.03
2023-02-22T12:09:32.985Z,57.29